Time;durP1;ratioP1;P1;durP2;ratioP2;P2;SDS_P1;SDS_P2;PMS_P1;PMS_P2;Temp;Humidity;BMP_temperature;BMP_pressure;BME280_temperature;BME280_humidity;BME280_pressure;Samples;Min_cycle;Max_cycle;Signal;HPM_P1;HPM_P2
2022/01/14 00:02:21;;;;;;;11.57;3.73;;;13.00;95.70;;;;;;5129390;28;20070;-30
2022/01/14 00:04:52;;;;;;;7.63;3.20;;;13.00;95.80;;;;;;5132352;28;20101;-30
2022/01/14 00:07:26;;;;;;;10.30;3.33;;;12.90;95.80;;;;;;5149007;28;20050;-29
2022/01/14 00:09:57;;;;;;;7.00;3.20;;;12.90;95.90;;;;;;5149052;28;20079;-29
2022/01/14 00:12:35;;;;;;;5.30;2.50;;;12.90;96.00;;;;;;5149017;28;20051;-30
2022/01/14 00:15:26;;;;;;;9.20;4.83;;;12.90;96.30;;;;;;5149427;28;20109;-31
2022/01/14 00:17:57;;;;;;;9.77;5.47;;;12.90;96.00;;;;;;5148998;28;20047;-31
2022/01/14 00:20:28;;;;;;;13.33;7.73;;;12.90;95.90;;;;;;5149178;28;20058;-30
2022/01/14 00:23:00;;;;;;;8.07;4.43;;;12.90;96.00;;;;;;5131801;28;20042;-31
2022/01/14 00:33:44;;;;;;;7.60;3.07;;;12.90;96.00;;;;;;5148648;28;20061;-30
2022/01/14 00:36:14;;;;;;;9.80;3.60;;;12.90;96.00;;;;;;5148704;28;20047;-29
2022/01/14 00:38:46;;;;;;;7.47;2.83;;;12.90;96.10;;;;;;5148648;28;20151;-30
2022/01/14 00:41:16;;;;;;;6.17;2.93;;;12.90;96.20;;;;;;5148436;28;20214;-30
2022/01/14 00:43:49;;;;;;;6.93;3.23;;;12.80;96.20;;;;;;5148386;28;20051;-29
2022/01/14 00:46:20;;;;;;;6.18;2.83;;;12.80;96.30;;;;;;5115961;28;20053;-29
2022/01/14 00:48:51;;;;;;;6.27;2.87;;;12.80;96.30;;;;;;5148005;28;20046;-28
2022/01/14 00:51:23;;;;;;;9.47;3.70;;;12.80;96.30;;;;;;5115337;28;20129;-31
2022/01/14 00:53:54;;;;;;;7.63;4.03;;;12.80;96.30;;;;;;5147979;28;20042;-31
2022/01/14 00:59:14;;;;;;;7.40;3.70;;;12.80;96.30;;;;;;5130892;28;20089;-31
2022/01/14 01:01:48;;;;;;;7.10;2.93;;;12.80;96.20;;;;;;5148082;28;20061;-31
2022/01/14 01:04:25;;;;;;;12.27;5.47;;;12.80;96.30;;;;;;5130888;28;20043;-31
2022/01/14 01:06:56;;;;;;;9.47;3.77;;;12.80;96.30;;;;;;5116921;28;20465;-31
2022/01/14 01:09:29;;;;;;;8.30;3.40;;;12.90;96.20;;;;;;5147917;28;20163;-31
2022/01/14 01:12:14;;;;;;;7.07;3.28;;;12.90;96.20;;;;;;5148021;28;20042;-30
2022/01/14 01:14:56;;;;;;;10.00;4.37;;;12.90;96.20;;;;;;5132421;28;20138;-31
2022/01/14 01:17:27;;;;;;;10.97;6.13;;;12.90;96.10;;;;;;5132233;28;20104;-29
2022/01/14 01:19:58;;;;;;;9.13;3.60;;;12.80;96.10;;;;;;5115236;28;20058;-29
2022/01/14 01:22:29;;;;;;;6.80;3.33;;;12.80;96.30;;;;;;5147781;28;20085;-29
2022/01/14 01:25:01;;;;;;;8.50;4.10;;;12.80;96.20;;;;;;5147652;28;20468;-31
2022/01/14 01:27:37;;;;;;;6.87;3.40;;;12.90;96.20;;;;;;5147931;28;20496;-30
2022/01/14 01:30:37;;;;;;;7.70;3.93;;;12.90;96.10;;;;;;5148027;28;20066;-30
2022/01/14 01:33:06;;;;;;;11.13;4.60;;;12.90;96.30;;;;;;5147548;28;20054;-30
2022/01/14 01:35:37;;;;;;;8.40;4.40;;;12.90;96.10;;;;;;5147486;28;20043;-30
2022/01/14 01:38:15;;;;;;;10.77;4.63;;;12.90;96.10;;;;;;5130329;28;20051;-30
2022/01/14 01:40:47;;;;;;;12.20;5.10;;;12.90;96.10;;;;;;5147821;28;20054;-29
2022/01/14 01:43:21;;;;;;;7.73;4.03;;;12.80;96.30;;;;;;5147393;28;20050;-30
2022/01/14 01:45:54;;;;;;;8.77;4.80;;;12.70;96.40;;;;;;5115240;28;20050;-30
2022/01/14 01:48:25;;;;;;;8.57;4.40;;;12.80;96.30;;;;;;5147282;28;20042;-30
2022/01/14 01:50:58;;;;;;;10.27;5.10;;;12.80;96.30;;;;;;5147265;28;20054;-29
2022/01/14 01:53:31;;;;;;;11.40;5.50;;;12.70;96.60;;;;;;5147610;28;20053;-29
2022/01/14 01:56:02;;;;;;;;;;;12.70;96.40;;;;;;5130643;28;20051;-29
2022/01/14 01:58:33;;;;;;;9.83;5.10;;;12.70;96.40;;;;;;5147058;28;20253;-29
2022/01/14 02:01:04;;;;;;;8.57;4.07;;;12.80;96.50;;;;;;5146208;28;20049;-30
2022/01/14 02:03:36;;;;;;;10.23;4.93;;;12.80;96.40;;;;;;5147067;28;20137;-29
2022/01/14 02:06:07;;;;;;;10.03;5.63;;;12.80;96.30;;;;;;5129364;28;20055;-30
2022/01/14 02:08:38;;;;;;;7.37;5.00;;;12.90;96.30;;;;;;5129767;28;20047;-29
2022/01/14 02:11:09;;;;;;;10.80;6.03;;;12.90;96.20;;;;;;5146696;28;20098;-30
2022/01/14 02:13:40;;;;;;;9.43;4.97;;;12.90;96.30;;;;;;5147096;28;20051;-30
2022/01/14 02:16:19;;;;;;;14.10;7.03;;;12.90;96.40;;;;;;5146853;28;20106;-31
2022/01/14 02:22:10;;;;;;;7.53;4.93;;;12.80;96.30;;;;;;5147415;28;20070;-31
2022/01/14 02:24:54;;;;;;;10.70;5.68;;;12.80;96.40;;;;;;5146981;28;20039;-30
2022/01/14 02:27:24;;;;;;;11.53;6.07;;;12.80;96.30;;;;;;5132419;28;20046;-30
2022/01/14 02:29:55;;;;;;;8.23;4.43;;;12.90;96.20;;;;;;5129288;28;20097;-31
2022/01/14 02:32:26;;;;;;;10.70;5.60;;;12.80;96.30;;;;;;5147085;28;20047;-31
2022/01/14 02:34:57;;;;;;;8.10;4.67;;;12.80;96.30;;;;;;5146555;28;20551;-29
2022/01/14 02:37:28;;;;;;;7.87;4.43;;;12.90;96.20;;;;;;5113559;28;20078;-31
2022/01/14 02:39:58;;;;;;;10.80;5.67;;;12.90;96.10;;;;;;5129637;28;20117;-31
2022/01/14 02:42:30;;;;;;;9.53;6.23;;;12.90;96.10;;;;;;5146518;28;20047;-31
2022/01/14 02:45:05;;;;;;;12.10;5.93;;;12.90;96.10;;;;;;5146381;28;20047;-29
2022/01/14 02:47:36;;;;;;;11.83;6.37;;;12.90;96.20;;;;;;5146801;28;20042;-30
2022/01/14 02:50:09;;;;;;;9.40;5.23;;;12.80;96.20;;;;;;5146296;28;20054;-30
2022/01/14 02:53:01;;;;;;;10.20;5.43;;;12.90;96.20;;;;;;5113872;28;20492;-30
2022/01/14 02:55:34;;;;;;;9.33;5.17;;;12.90;96.20;;;;;;5132945;28;20093;-30
2022/01/14 02:58:05;;;;;;;8.10;5.93;;;12.90;96.10;;;;;;5146382;28;20441;-30
2022/01/14 03:00:36;;;;;;;8.90;4.97;;;12.90;96.20;;;;;;5129049;28;20174;-30
2022/01/14 03:03:08;;;;;;;7.57;4.27;;;12.90;96.20;;;;;;5129717;28;20381;-29
2022/01/14 03:05:38;;;;;;;8.97;4.73;;;12.90;96.30;;;;;;5113006;28;20062;-30
2022/01/14 03:08:10;;;;;;;8.60;4.43;;;12.80;96.40;;;;;;5146604;28;20066;-30
2022/01/14 03:10:40;;;;;;;8.03;4.57;;;12.70;96.60;;;;;;5129810;28;20054;-30
2022/01/14 03:13:12;;;;;;;6.40;3.83;;;12.70;96.60;;;;;;5116970;28;20089;-31
2022/01/14 03:15:42;;;;;;;10.80;5.53;;;12.70;96.50;;;;;;5150154;28;20070;-29
2022/01/14 03:18:17;;;;;;;6.70;3.63;;;12.70;96.60;;;;;;5150204;28;20067;-30
2022/01/14 03:20:50;;;;;;;8.30;4.70;;;12.70;96.60;;;;;;5117905;28;20046;-29
2022/01/14 03:23:21;;;;;;;;;;;12.80;96.50;;;;;;5133702;28;20481;-29
2022/01/14 03:25:52;;;;;;;11.03;5.20;;;12.90;96.50;;;;;;5149986;28;19922;-31
2022/01/14 03:28:24;;;;;;;6.77;3.57;;;12.90;96.40;;;;;;5149653;28;20062;-30
2022/01/14 03:30:54;;;;;;;8.20;3.97;;;12.90;96.40;;;;;;5133275;28;20046;-30
2022/01/14 03:33:26;;;;;;;8.60;4.00;;;12.90;96.40;;;;;;5149981;28;20043;-29
2022/01/14 03:35:57;;;;;;;6.93;4.10;;;12.90;96.50;;;;;;5149620;28;20567;-31
2022/01/14 03:38:28;;;;;;;6.93;4.50;;;12.90;96.50;;;;;;5149689;28;20424;-30
2022/01/14 03:40:59;;;;;;;9.03;4.77;;;12.90;96.50;;;;;;5116082;28;20070;-29
2022/01/14 03:43:30;;;;;;;7.10;3.57;;;12.90;96.50;;;;;;5132642;28;20077;-29
2022/01/14 03:46:01;;;;;;;6.13;3.37;;;12.90;96.50;;;;;;5149677;28;20082;-30
2022/01/14 03:48:32;;;;;;;5.67;2.97;;;12.80;96.60;;;;;;5149485;28;20105;-29
2022/01/14 03:51:03;;;;;;;4.10;2.77;;;12.80;96.60;;;;;;5132256;28;20050;-29
2022/01/14 03:53:34;;;;;;;5.30;2.83;;;12.90;96.60;;;;;;5149377;28;20066;-29
2022/01/14 03:56:05;;;;;;;5.70;2.53;;;12.90;96.70;;;;;;5132853;28;20577;-29
2022/01/14 03:58:36;;;;;;;3.83;2.40;;;12.80;96.70;;;;;;5132467;28;20131;-30
2022/01/14 04:01:09;;;;;;;5.47;2.63;;;12.80;96.70;;;;;;5149643;28;20502;-30
2022/01/14 04:03:40;;;;;;;8.03;3.87;;;12.90;96.70;;;;;;5132830;28;20078;-30
2022/01/14 04:06:11;;;;;;;6.83;3.23;;;12.90;96.70;;;;;;5127651;28;20063;-29
2022/01/14 04:08:42;;;;;;;4.93;3.03;;;12.90;96.60;;;;;;5128103;29;20066;-29
2022/01/14 04:11:13;;;;;;;6.53;2.50;;;12.90;96.60;;;;;;5127893;29;20047;-29
2022/01/14 04:13:51;;;;;;;5.20;2.13;;;12.90;96.60;;;;;;5112060;29;20544;-29
2022/01/14 04:16:23;;;;;;;3.77;2.17;;;12.90;96.60;;;;;;5129750;29;20063;-30
2022/01/14 04:18:54;;;;;;;6.53;2.00;;;13.00;96.60;;;;;;5128842;28;20079;-31
2022/01/14 04:21:27;;;;;;;5.20;1.80;;;12.90;96.60;;;;;;5128669;29;20051;-29
2022/01/14 04:23:58;;;;;;;3.40;1.63;;;13.00;96.60;;;;;;5128030;28;20047;-30
2022/01/14 04:26:29;;;;;;;2.87;1.90;;;12.90;96.50;;;;;;5128868;29;20050;-30
2022/01/14 04:29:00;;;;;;;4.53;2.00;;;12.80;96.70;;;;;;5128920;29;20043;-29
2022/01/14 04:31:31;;;;;;;2.60;1.50;;;12.90;96.70;;;;;;5127707;29;20065;-29
2022/01/14 04:34:02;;;;;;;3.77;1.73;;;12.80;96.60;;;;;;5127723;29;20477;-29
2022/01/14 04:36:33;;;;;;;4.37;1.33;;;12.90;96.60;;;;;;5128644;29;20051;-29
2022/01/14 04:39:04;;;;;;;3.03;1.50;;;12.90;96.60;;;;;;5128540;29;20055;-30
2022/01/14 04:41:35;;;;;;;3.43;1.67;;;12.90;96.50;;;;;;5127769;29;20117;-29
2022/01/14 04:44:06;;;;;;;5.03;2.10;;;12.90;96.50;;;;;;5128776;29;20070;-30
2022/01/14 04:49:11;;;;;;;7.00;3.27;;;12.80;96.60;;;;;;5128446;29;20047;-29
2022/01/14 04:51:42;;;;;;;4.63;2.43;;;12.80;96.60;;;;;;5128634;29;20481;-30
2022/01/14 04:54:13;;;;;;;5.37;3.77;;;12.70;96.70;;;;;;5127444;29;20050;-29
2022/01/14 04:56:44;;;;;;;7.93;5.60;;;12.80;96.60;;;;;;5127322;29;20048;-30
2022/01/14 04:59:15;;;;;;;6.13;3.67;;;12.90;96.50;;;;;;5128383;29;20062;-30
2022/01/14 05:01:46;;;;;;;6.03;3.50;;;12.90;96.50;;;;;;5128477;29;20055;-31
2022/01/14 05:04:17;;;;;;;7.43;4.33;;;12.90;96.60;;;;;;5128562;28;20058;-29
2022/01/14 05:06:56;;;;;;;4.13;3.17;;;12.90;96.70;;;;;;5147618;28;20500;-29
2022/01/14 05:09:34;;;;;;;5.83;3.30;;;12.70;96.70;;;;;;5147910;28;20065;-29
2022/01/14 05:12:09;;;;;;;6.23;4.40;;;11.60;98.60;;;;;;5148093;28;20039;-28
2022/01/14 05:14:40;;;;;;;6.43;4.50;;;11.10;99.70;;;;;;5147640;28;20046;-29
2022/01/14 05:17:11;;;;;;;6.67;4.63;;;10.90;99.90;;;;;;5147928;28;20512;-29
2022/01/14 05:19:42;;;;;;;5.93;3.90;;;10.70;99.90;;;;;;5130679;28;20059;-28
2022/01/14 05:22:13;;;;;;;5.73;4.63;;;10.70;99.90;;;;;;5147651;28;20073;-28
2022/01/14 05:24:44;;;;;;;12.77;7.63;;;10.60;99.90;;;;;;5098007;28;20105;-28
2022/01/14 05:27:15;;;;;;;8.87;5.47;;;10.60;99.90;;;;;;5147810;28;20480;-29
2022/01/14 05:29:46;;;;;;;11.47;6.67;;;10.50;99.90;;;;;;5147433;28;20125;-28
2022/01/14 05:32:17;;;;;;;8.87;7.57;;;10.50;99.90;;;;;;5146929;28;20063;-29
2022/01/14 05:34:48;;;;;;;13.43;9.87;;;10.40;99.90;;;;;;5130265;28;20110;-28
2022/01/14 05:37:19;;;;;;;12.50;8.77;;;10.40;99.90;;;;;;5114533;28;20054;-29
2022/01/14 05:39:50;;;;;;;11.73;8.63;;;10.40;99.90;;;;;;5147366;28;20469;-29
2022/01/14 05:42:21;;;;;;;14.23;8.77;;;10.30;99.90;;;;;;5147776;28;20054;-29
2022/01/14 05:44:52;;;;;;;13.73;9.97;;;10.30;99.90;;;;;;5130207;28;20054;-29
2022/01/14 05:47:23;;;;;;;12.33;9.00;;;10.30;99.90;;;;;;5147362;28;20050;-28
2022/01/14 05:49:54;;;;;;;11.50;9.37;;;10.30;99.90;;;;;;5147239;28;20062;-29
2022/01/14 05:52:25;;;;;;;24.50;16.53;;;10.20;99.90;;;;;;5147280;28;20039;-28
2022/01/14 05:55:17;;;;;;;17.13;11.03;;;10.20;99.90;;;;;;5147011;28;20113;-28
2022/01/14 05:57:48;;;;;;;12.17;8.63;;;10.20;99.90;;;;;;5105359;29;20134;-29
2022/01/14 06:00:20;;;;;;;10.63;9.23;;;10.20;99.90;;;;;;5105113;29;20115;-28
2022/01/14 06:02:51;;;;;;;20.90;15.60;;;10.20;99.90;;;;;;5105092;29;20063;-29
2022/01/14 06:05:22;;;;;;;26.60;18.50;;;10.20;99.90;;;;;;5104715;29;20106;-28
2022/01/14 06:07:53;;;;;;;15.63;11.53;;;10.10;99.90;;;;;;5105175;29;20087;-28
2022/01/14 06:10:24;;;;;;;9.90;8.53;;;10.20;99.90;;;;;;5104912;29;20090;-28
2022/01/14 06:12:55;;;;;;;10.73;9.57;;;10.20;99.90;;;;;;5089202;29;20071;-29
2022/01/14 06:15:26;;;;;;;12.40;9.50;;;10.30;99.90;;;;;;5104648;29;20082;-27
2022/01/14 06:17:57;;;;;;;10.93;9.63;;;10.40;99.90;;;;;;5104657;29;20099;-28
2022/01/14 06:20:28;;;;;;;11.07;7.77;;;10.50;99.90;;;;;;5104827;29;20481;-29
2022/01/14 06:22:59;;;;;;;10.87;8.43;;;10.50;99.90;;;;;;5104656;29;20082;-28
2022/01/14 06:25:30;;;;;;;6.07;4.50;;;10.50;99.90;;;;;;5104579;29;20184;-28
2022/01/14 06:28:01;;;;;;;10.87;9.10;;;10.60;99.90;;;;;;5098346;28;20138;-30
2022/01/14 06:30:32;;;;;;;7.40;5.30;;;10.60;99.90;;;;;;5145494;28;20239;-28
2022/01/14 06:33:03;;;;;;;10.40;7.93;;;10.60;99.90;;;;;;5137322;28;20078;-28
2022/01/14 06:35:34;;;;;;;12.93;11.53;;;10.60;99.90;;;;;;5124609;28;20039;-29
2022/01/14 06:38:05;;;;;;;8.30;7.40;;;10.60;99.90;;;;;;5130972;28;20051;-28
2022/01/14 06:40:37;;;;;;;6.37;4.30;;;10.60;99.90;;;;;;5133812;28;20065;-29
2022/01/14 06:43:08;;;;;;;7.93;5.50;;;10.60;99.90;;;;;;5132597;28;20089;-28
2022/01/14 06:45:40;;;;;;;6.23;4.67;;;10.50;99.90;;;;;;5131583;28;20066;-28
2022/01/14 06:48:11;;;;;;;6.17;4.40;;;10.50;99.90;;;;;;5129664;28;20050;-29
2022/01/14 06:50:42;;;;;;;7.70;5.80;;;10.50;99.90;;;;;;5136596;28;20066;-28
2022/01/14 06:53:14;;;;;;;6.33;4.67;;;10.40;99.90;;;;;;5140689;28;20058;-29
2022/01/14 06:55:45;;;;;;;6.70;4.37;;;10.40;99.90;;;;;;5134130;28;20070;-28
2022/01/14 06:58:16;;;;;;;7.00;4.97;;;10.40;99.90;;;;;;5130802;28;20108;-27
2022/01/14 07:00:47;;;;;;;6.57;4.87;;;10.40;99.90;;;;;;5116851;28;20051;-28
2022/01/14 07:03:18;;;;;;;7.30;4.47;;;10.30;99.90;;;;;;5130317;28;20039;-30
2022/01/14 07:05:49;;;;;;;8.00;5.90;;;10.30;99.90;;;;;;5137695;28;20741;-29
2022/01/14 07:08:20;;;;;;;7.00;4.97;;;10.30;99.90;;;;;;5129115;28;20062;-30
2022/01/14 07:10:51;;;;;;;13.43;9.00;;;10.30;99.90;;;;;;5126755;28;20102;-29
2022/01/14 07:13:22;;;;;;;9.73;7.80;;;10.20;99.90;;;;;;5113118;28;20055;-30
2022/01/14 07:15:53;;;;;;;10.77;8.03;;;10.20;99.90;;;;;;5112600;28;20035;-30
2022/01/14 07:18:24;;;;;;;10.47;8.97;;;10.20;99.90;;;;;;5115596;28;20551;-29
2022/01/14 07:20:55;;;;;;;15.40;11.03;;;10.20;99.90;;;;;;5134026;28;20079;-29
2022/01/14 07:23:26;;;;;;;11.27;8.97;;;10.10;99.90;;;;;;5132380;28;20085;-30
2022/01/14 07:25:57;;;;;;;9.30;7.90;;;10.20;99.90;;;;;;5131873;28;20564;-29
2022/01/14 07:28:28;;;;;;;10.90;7.60;;;10.10;99.90;;;;;;5099665;28;20051;-28
2022/01/14 07:30:59;;;;;;;9.10;8.00;;;10.10;99.90;;;;;;5110929;28;20067;-28
2022/01/14 07:33:30;;;;;;;8.40;7.07;;;10.10;99.90;;;;;;5129939;28;20069;-28
2022/01/14 07:36:02;;;;;;;8.20;6.20;;;10.10;99.90;;;;;;5096223;28;20057;-30
2022/01/14 07:38:32;;;;;;;7.33;5.60;;;10.10;99.90;;;;;;5113714;28;20047;-28
2022/01/14 07:41:04;;;;;;;5.57;4.40;;;10.10;99.90;;;;;;5139248;28;20406;-28
2022/01/14 07:43:35;;;;;;;7.23;6.20;;;10.10;99.90;;;;;;5116993;28;20504;-29
2022/01/14 07:46:07;;;;;;;7.00;5.30;;;10.10;99.90;;;;;;5128298;28;20109;-28
2022/01/14 07:48:37;;;;;;;7.60;5.70;;;10.10;99.90;;;;;;5139328;28;20051;-30
2022/01/14 07:51:09;;;;;;;12.90;9.30;;;10.10;99.90;;;;;;5145904;28;20051;-30
2022/01/14 07:53:40;;;;;;;7.10;5.30;;;10.10;99.90;;;;;;5145668;28;20083;-28
2022/01/14 07:56:13;;;;;;;6.43;4.83;;;10.10;99.90;;;;;;5145596;28;20078;-29
2022/01/14 07:58:44;;;;;;;8.17;5.70;;;10.10;99.90;;;;;;5147963;28;20054;-30
2022/01/14 08:01:15;;;;;;;8.17;7.37;;;10.00;99.90;;;;;;5116003;28;20552;-29
2022/01/14 08:03:46;;;;;;;7.00;5.73;;;10.00;99.90;;;;;;5149261;28;20133;-29
2022/01/14 08:06:17;;;;;;;6.43;5.47;;;10.00;99.90;;;;;;5149235;28;20054;-28
2022/01/14 08:08:48;;;;;;;7.40;6.60;;;10.10;99.90;;;;;;5131880;28;20051;-30
2022/01/14 08:11:19;;;;;;;8.23;6.47;;;10.10;99.90;;;;;;5149243;28;20489;-30
2022/01/14 08:13:50;;;;;;;8.00;6.27;;;10.10;99.90;;;;;;5149120;28;20074;-30
2022/01/14 08:16:22;;;;;;;7.43;6.27;;;10.10;99.90;;;;;;5132361;28;20058;-28
2022/01/14 08:18:53;;;;;;;7.57;6.40;;;10.10;99.90;;;;;;5131913;28;20053;-28
2022/01/14 08:21:24;;;;;;;9.13;6.40;;;10.10;99.90;;;;;;5149065;28;20066;-28
2022/01/14 08:23:55;;;;;;;6.47;5.63;;;10.10;99.90;;;;;;5149343;28;20043;-28
2022/01/14 08:26:26;;;;;;;8.03;7.13;;;10.10;99.90;;;;;;5148958;28;20476;-30
2022/01/14 08:28:57;;;;;;;9.63;8.37;;;10.10;99.90;;;;;;5131903;28;20047;-29
2022/01/14 08:31:28;;;;;;;8.30;6.87;;;10.10;99.90;;;;;;5148771;28;20472;-29
2022/01/14 08:34:00;;;;;;;9.30;8.00;;;10.10;99.90;;;;;;5148847;28;20085;-30
2022/01/14 08:36:31;;;;;;;6.87;6.13;;;10.10;99.90;;;;;;5131554;28;20452;-30
2022/01/14 08:39:02;;;;;;;9.63;6.77;;;10.10;99.90;;;;;;5148048;28;20042;-30
2022/01/14 08:41:33;;;;;;;7.97;7.00;;;10.10;99.90;;;;;;5146563;28;20039;-29
2022/01/14 08:44:04;;;;;;;55.20;45.93;;;10.10;99.90;;;;;;5147316;28;20109;-30
2022/01/14 08:46:35;;;;;;;10.80;9.20;;;10.10;99.90;;;;;;5148830;28;20059;-30
2022/01/14 08:49:06;;;;;;;11.27;10.03;;;10.10;99.90;;;;;;5148450;28;20054;-28
2022/01/14 08:51:38;;;;;;;13.17;11.20;;;10.10;99.90;;;;;;5148292;28;20404;-30
2022/01/14 08:54:09;;;;;;;10.80;9.70;;;10.10;99.90;;;;;;5148346;28;20393;-30
2022/01/14 08:56:40;;;;;;;17.07;10.37;;;10.10;99.90;;;;;;5148175;28;20055;-28
2022/01/14 08:59:17;;;;;;;20.20;14.93;;;10.00;99.90;;;;;;5148243;28;20047;-29
2022/01/14 09:01:49;;;;;;;23.43;20.93;;;10.00;99.90;;;;;;5130888;28;20066;-28
2022/01/14 09:04:19;;;;;;;13.47;10.80;;;10.00;99.90;;;;;;5130518;28;20043;-29
2022/01/14 09:06:51;;;;;;;15.23;10.63;;;10.10;99.90;;;;;;5148261;28;20054;-30
2022/01/14 09:09:22;;;;;;;10.90;9.57;;;10.00;99.90;;;;;;5147377;28;20065;-28
2022/01/14 09:11:54;;;;;;;12.20;10.13;;;10.00;99.90;;;;;;5148000;28;20051;-30
2022/01/14 09:14:25;;;;;;;15.40;10.53;;;10.00;99.90;;;;;;5130581;28;20055;-28
2022/01/14 09:16:57;;;;;;;16.10;10.90;;;10.00;99.90;;;;;;5130542;28;20125;-28
2022/01/14 09:19:28;;;;;;;7.00;6.03;;;10.00;99.90;;;;;;5147834;28;20448;-28
2022/01/14 09:21:59;;;;;;;7.30;5.77;;;10.00;99.90;;;;;;5147856;28;20054;-30
2022/01/14 09:24:29;;;;;;;6.43;5.73;;;10.10;99.90;;;;;;5147748;28;20054;-29
2022/01/14 09:27:01;;;;;;;5.00;3.40;;;10.00;99.90;;;;;;5130651;28;20050;-28
2022/01/14 09:29:32;;;;;;;4.77;3.77;;;10.10;99.90;;;;;;5114250;28;20496;-30
2022/01/14 09:32:03;;;;;;;6.30;4.00;;;10.10;99.90;;;;;;5147120;28;20046;-28
2022/01/14 09:34:34;;;;;;;5.83;3.97;;;10.10;99.90;;;;;;5147471;28;20070;-29
2022/01/14 09:37:05;;;;;;;4.40;2.77;;;10.10;99.90;;;;;;5147386;28;20473;-28
2022/01/14 09:39:37;;;;;;;4.87;3.20;;;10.10;99.90;;;;;;5147870;28;20047;-30
2022/01/14 09:42:08;;;;;;;6.87;4.40;;;10.10;99.90;;;;;;5147455;28;20038;-28
2022/01/14 09:44:39;;;;;;;3.83;2.60;;;10.20;99.90;;;;;;5130046;28;20053;-30
2022/01/14 09:47:16;;;;;;;4.50;2.40;;;10.20;99.90;;;;;;5130365;28;20038;-28
2022/01/14 09:49:47;;;;;;;4.23;3.10;;;10.20;99.90;;;;;;5110934;28;20058;-29
2022/01/14 09:52:18;;;;;;;4.10;2.67;;;10.20;99.90;;;;;;5146712;28;20081;-28
2022/01/14 09:54:51;;;;;;;5.30;2.97;;;10.30;99.90;;;;;;5129253;28;20089;-29
2022/01/14 09:57:22;;;;;;;4.57;2.83;;;10.30;99.90;;;;;;5129962;28;20077;-27
2022/01/14 09:59:52;;;;;;;3.57;2.47;;;10.30;99.90;;;;;;5129419;28;20075;-28
2022/01/14 10:02:35;;;;;;;6.77;3.43;;;10.30;99.90;;;;;;5147420;28;20050;-29
2022/01/14 10:05:29;;;;;;;6.57;4.10;;;10.30;99.90;;;;;;5129349;28;20162;-30
2022/01/14 10:08:27;;;;;;;4.40;3.40;;;10.40;99.90;;;;;;5116017;28;20061;-30
2022/01/14 10:11:00;;;;;;;4.10;2.70;;;10.30;99.90;;;;;;5065635;29;20060;-30
2022/01/14 10:13:32;;;;;;;6.88;4.20;;;10.40;99.90;;;;;;5065577;29;20479;-29
2022/01/14 10:16:05;;;;;;;3.90;2.53;;;10.70;99.90;;;;;;5049728;29;20100;-29
2022/01/14 10:18:38;;;;;;;6.35;4.25;;;11.00;99.90;;;;;;5019047;29;20206;-29
2022/01/14 10:21:10;;;;;;;7.40;5.28;;;11.20;99.90;;;;;;5049188;29;20056;-30
2022/01/14 10:23:47;;;;;;;6.10;4.53;;;11.50;99.90;;;;;;5049979;29;20405;-30
2022/01/14 10:26:18;;;;;;;6.80;4.30;;;11.60;99.90;;;;;;5050130;29;20056;-31
2022/01/14 10:29:03;;;;;;;11.87;7.80;;;11.70;99.90;;;;;;5065362;29;20087;-30
2022/01/14 10:31:36;;;;;;;4.60;2.73;;;11.80;99.90;;;;;;5065270;29;20052;-31
2022/01/14 10:34:11;;;;;;;3.38;1.98;;;11.90;99.90;;;;;;5065122;29;20076;-30
2022/01/14 10:36:43;;;;;;;4.30;2.00;;;11.90;99.90;;;;;;5049799;29;20126;-28
2022/01/14 10:39:25;;;;;;;4.37;2.40;;;12.00;99.90;;;;;;5049807;29;20111;-30
2022/01/14 10:41:56;;;;;;;4.27;2.17;;;12.00;99.90;;;;;;5065333;29;20067;-29
2022/01/14 10:44:30;;;;;;;;;;;12.10;99.90;;;;;;5050323;29;20474;-31
2022/01/14 10:47:19;;;;;;;3.97;2.27;;;12.10;99.90;;;;;;5068353;28;20332;-28
2022/01/14 10:49:55;;;;;;;4.17;2.20;;;12.20;99.90;;;;;;5145713;28;20070;-29
2022/01/14 10:52:27;;;;;;;4.40;2.60;;;12.20;99.90;;;;;;5108108;28;20591;-29
2022/01/14 10:54:58;;;;;;;3.53;1.80;;;12.30;99.90;;;;;;5124295;28;20046;-30
2022/01/14 10:57:30;;;;;;;5.80;2.13;;;12.50;99.90;;;;;;5144056;28;20562;-29
2022/01/14 11:00:19;;;;;;;4.47;2.67;;;12.60;99.90;;;;;;5111100;28;20122;-30
2022/01/14 11:02:53;;;;;;;4.50;2.57;;;12.60;99.90;;;;;;5127297;28;20051;-29
2022/01/14 11:05:25;;;;;;;4.50;2.60;;;12.60;99.90;;;;;;5143452;28;20113;-30
2022/01/14 11:07:56;;;;;;;4.20;1.83;;;12.70;99.90;;;;;;5143615;28;20147;-30
2022/01/14 11:10:29;;;;;;;5.33;2.37;;;12.80;99.90;;;;;;5143696;28;20104;-30
2022/01/14 11:13:01;;;;;;;4.32;1.95;;;12.80;99.90;;;;;;5126830;28;20054;-30
2022/01/14 11:15:34;;;;;;;3.77;1.50;;;12.80;99.90;;;;;;5143941;28;20043;-29
2022/01/14 11:18:07;;;;;;;3.90;1.83;;;12.80;99.90;;;;;;5126552;28;20555;-30
2022/01/14 11:23:14;;;;;;;;;;;12.80;99.90;;;;;;5144200;28;20051;-30
2022/01/14 11:23:29;;;;;;;5.63;2.20;;;12.90;99.90;;;;;;5143920;28;19922;-29
2022/01/14 11:26:08;;;;;;;4.83;2.43;;;12.90;99.90;;;;;;5143943;28;20039;-29
2022/01/14 11:28:40;;;;;;;5.27;2.40;;;12.90;99.90;;;;;;5094840;28;20039;-29
2022/01/14 11:31:27;;;;;;;4.40;2.03;;;12.90;99.90;;;;;;5143378;28;20082;-29
2022/01/14 11:34:00;;;;;;;5.87;3.53;;;12.90;99.90;;;;;;5135511;28;20093;-30
2022/01/14 11:37:00;;;;;;;7.00;3.15;;;12.90;99.90;;;;;;5147387;28;20055;-28
2022/01/14 11:39:36;;;;;;;7.60;4.03;;;12.90;99.90;;;;;;5110624;29;20113;-29
2022/01/14 11:42:14;;;;;;;5.83;3.77;;;12.90;99.90;;;;;;5116322;28;20467;-31
2022/01/14 11:47:28;;;;;;;9.80;6.20;;;12.90;99.90;;;;;;5147530;28;20047;-29
2022/01/14 11:49:59;;;;;;;17.43;8.90;;;12.90;99.90;;;;;;5147407;28;20043;-28
2022/01/14 11:52:36;;;;;;;6.20;3.73;;;12.90;99.90;;;;;;5147028;28;20051;-29
2022/01/14 11:55:22;;;;;;;15.27;6.37;;;12.80;99.90;;;;;;5147222;28;20049;-30
2022/01/14 11:58:18;;;;;;;12.67;5.50;;;12.70;99.90;;;;;;5146466;28;20051;-29
2022/01/14 12:00:49;;;;;;;28.57;14.67;;;12.60;99.90;;;;;;5146654;28;20547;-30
2022/01/14 12:03:28;;;;;;;22.57;11.50;;;12.60;99.90;;;;;;5146405;28;20512;-30
2022/01/14 12:06:05;;;;;;;8.90;5.27;;;12.60;99.90;;;;;;5146263;28;20058;-29
2022/01/14 12:13:23;;;;;;;7.53;4.03;;;12.60;99.90;;;;;;5224914;23;20087;-30
2022/01/14 12:16:01;;;;;;;9.90;4.70;;;12.50;99.60;;;;;;5102464;29;20492;-29
2022/01/14 12:18:57;;;;;;;8.93;3.63;;;12.50;99.40;;;;;;5123637;28;20071;-29
2022/01/14 12:21:39;;;;;;;9.90;4.07;;;12.40;99.20;;;;;;5122912;28;20390;-30
2022/01/14 12:24:18;;;;;;;9.07;4.17;;;12.40;99.00;;;;;;5120372;28;20043;-30
2022/01/14 12:26:52;;;;;;;9.03;5.20;;;12.40;98.40;;;;;;5116489;28;20046;-28
2022/01/14 12:29:46;;;;;;;8.40;4.40;;;12.30;97.80;;;;;;5120469;28;20047;-30
2022/01/14 12:32:34;;;;;;;8.50;3.10;;;12.30;97.40;;;;;;5121958;28;20047;-30
2022/01/14 12:35:10;;;;;;;6.67;2.20;;;12.30;97.30;;;;;;5114657;28;20490;-30
2022/01/14 12:41:31;;;;;;;17.33;8.40;;;11.90;97.40;;;;;;5112320;28;20062;-30
2022/01/14 12:44:44;;;;;;;9.17;3.27;;;12.10;97.30;;;;;;5120933;28;20046;-30
2022/01/14 12:47:20;;;;;;;9.37;4.20;;;12.00;96.90;;;;;;5117513;28;20460;-28
2022/01/14 12:57:25;;;;;;;8.97;4.10;;;11.90;96.40;;;;;;5118879;28;20031;-30
2022/01/14 12:59:57;;;;;;;10.93;6.37;;;12.00;96.40;;;;;;5123765;28;20054;-30
2022/01/14 13:02:34;;;;;;;11.33;5.20;;;12.10;96.30;;;;;;5118139;28;20059;-30
2022/01/14 13:05:16;;;;;;;11.13;5.03;;;12.20;96.10;;;;;;5113156;28;20178;-28
2022/01/14 13:07:49;;;;;;;10.93;5.10;;;12.20;95.80;;;;;;5081179;29;20063;-29
2022/01/14 13:10:26;;;;;;;8.52;4.30;;;12.20;95.70;;;;;;5087206;29;20517;-29
2022/01/14 13:13:02;;;;;;;8.33;3.10;;;12.10;95.50;;;;;;5087132;29;20637;-29
2022/01/14 13:15:35;;;;;;;10.67;4.33;;;12.20;95.50;;;;;;5102864;29;20063;-31
2022/01/14 13:18:13;;;;;;;8.77;3.75;;;12.20;95.50;;;;;;5102854;29;20485;-29
2022/01/14 13:20:45;;;;;;;11.90;3.90;;;12.30;95.30;;;;;;5093358;29;20047;-29
2022/01/14 13:23:19;;;;;;;7.97;3.50;;;12.20;95.20;;;;;;5102247;29;20621;-30
2022/01/14 13:25:50;;;;;;;6.17;3.07;;;12.20;95.30;;;;;;5102595;29;20134;-28
2022/01/14 13:28:21;;;;;;;8.43;3.43;;;12.10;94.90;;;;;;5081738;29;20051;-29
2022/01/14 13:30:53;;;;;;;9.83;3.53;;;12.10;94.80;;;;;;5080057;29;20060;-31
2022/01/14 13:33:25;;;;;;;7.37;3.53;;;12.20;94.90;;;;;;5077842;29;20203;-30
2022/01/14 13:39:06;;;;;;;8.27;3.00;;;12.20;95.00;;;;;;5073345;29;20074;-29
2022/01/14 13:41:40;;;;;;;6.40;3.30;;;12.20;94.90;;;;;;5056927;29;20127;-29
2022/01/14 13:44:18;;;;;;;11.17;5.83;;;12.10;94.90;;;;;;5076207;29;20135;-29
2022/01/14 13:46:55;;;;;;;9.43;5.07;;;12.20;94.80;;;;;;5073103;29;20075;-29
2022/01/14 13:49:27;;;;;;;8.03;3.47;;;12.30;95.00;;;;;;5069184;29;20635;-30
2022/01/14 13:52:11;;;;;;;12.90;3.70;;;12.30;94.70;;;;;;5068856;29;20055;-29
2022/01/14 13:54:42;;;;;;;6.03;2.50;;;12.10;94.60;;;;;;5071615;29;20083;-31
2022/01/14 13:57:15;;;;;;;9.60;3.40;;;12.00;94.60;;;;;;5056326;29;20509;-29